Time;durP1;ratioP1;P1;durP2;ratioP2;P2;SDS_P1;SDS_P2;PMS_P1;PMS_P2;Temp;Humidity;BMP_temperature;BMP_pressure;BME280_temperature;BME280_humidity;BME280_pressure;Samples;Min_cycle;Max_cycle;Signal;HPM_P1;HPM_P2
2021/03/23 00:01:23;;;;;;;;;;;;;;;1.24;76.05;99338.20;1691627;83;20163;-36
2021/03/23 00:03:52;;;;;;;;;;;;;;;1.22;76.10;99338.17;1695810;83;20172;-35
2021/03/23 00:06:22;;;;;;;;;;;;;;;1.20;76.23;99337.25;1689317;83;20184;-34
2021/03/23 00:08:53;;;;;;;;;;;;;;;1.19;76.30;99339.38;1656946;86;20269;-34
2021/03/23 00:11:29;;;;;;;;;;;;;;;1.17;76.40;99335.91;1694321;84;20420;-34
2021/03/23 00:13:59;;;;;;;;;;;;;;;1.16;76.60;99334.56;1698661;83;20429;-34
2021/03/23 00:16:29;;;;;;;;;;;;;;;1.14;76.75;99337.12;1695831;84;20157;-38
2021/03/23 00:18:57;;;;;;;;;;;;;;;1.12;76.90;99336.23;1723897;83;20160;-35
2021/03/23 00:21:24;;;;;;;;;;;;;;;1.11;77.21;99340.06;1722558;83;20175;-35
2021/03/23 00:23:52;;;;;;;;;;;;;;;1.10;77.40;99342.16;1729409;83;20171;-37
2021/03/23 00:26:20;;;;;;;;;;;;;;;1.08;77.65;99336.98;1720733;82;20146;-35
2021/03/23 00:28:48;;;;;;;;;;;;;;;1.05;77.78;99338.22;1701150;84;20149;-35
2021/03/23 00:31:18;;;;;;;;;;;;;;;1.04;78.01;99335.16;1716083;83;20180;-36
2021/03/23 00:33:48;;;;;;;;;;;;;;;1.01;78.14;99332.53;1698422;83;20430;-40
2021/03/23 00:36:19;;;;;;;;;;;;;;;0.99;78.15;99337.66;1679390;84;20515;-35
2021/03/23 00:38:47;;;;;;;;;;;;;;;0.97;78.07;99330.30;1701228;83;20143;-35
2021/03/23 00:41:15;;;;;;;;;;;;;;;0.96;78.05;99331.13;1715817;82;20545;-34
2021/03/23 00:43:42;;;;;;;;;;;;;;;0.95;77.75;99326.83;1713821;83;20171;-35
2021/03/23 00:46:10;;;;;;;;;;;;;;;0.94;77.58;99332.81;1717487;83;20436;-39
2021/03/23 00:48:38;;;;;;;;;;;;;;;0.94;77.36;99334.52;1726054;83;20168;-39
2021/03/23 00:51:06;;;;;;;;;;;;;;;0.93;77.32;99335.33;1721872;83;20157;-40
2021/03/23 00:53:34;;;;;;;;;;;;;;;0.93;77.39;99341.77;1711092;83;20596;-40
2021/03/23 00:56:03;;;;;;;;;;;;;;;0.91;77.57;99337.02;1709972;84;20124;-40
2021/03/23 00:58:30;;;;;;;;;;;;;;;0.90;77.64;99335.28;1709369;83;20216;-40
2021/03/23 01:00:58;;;;;;;;;;;;;;;0.89;77.69;99338.70;1710166;84;20140;-39
2021/03/23 01:03:25;;;;;;;;;;;;;;;0.88;77.76;99339.53;1694519;83;20190;-35
2021/03/23 01:05:53;;;;;;;;;;;;;;;0.86;77.78;99336.03;1678891;84;20273;-35
2021/03/23 01:08:20;;;;;;;;;;;;;;;0.85;77.76;99334.30;1686843;83;20218;-36
2021/03/23 01:10:48;;;;;;;;;;;;;;;0.84;77.79;99335.14;1679229;84;20146;-38
2021/03/23 01:13:16;;;;;;;;;;;;;;;0.83;77.83;99335.56;1703781;83;20140;-39
2021/03/23 01:15:44;;;;;;;;;;;;;;;0.82;77.78;99338.97;1722118;82;20187;-40
2021/03/23 01:18:12;;;;;;;;;;;;;;;0.81;77.88;99334.62;1697153;83;20485;-39
2021/03/23 01:20:40;;;;;;;;;;;;;;;0.80;77.94;99339.33;1680056;84;20156;-35
2021/03/23 01:23:08;;;;;;;;;;;;;;;0.80;77.79;99335.05;1673510;86;20212;-35
2021/03/23 01:25:36;;;;;;;;;;;;;;;0.80;77.64;99330.32;1701616;83;20455;-35
2021/03/23 01:28:04;;;;;;;;;;;;;;;0.79;77.36;99329.87;1714292;83;20223;-35
2021/03/23 01:30:31;;;;;;;;;;;;;;;0.79;77.15;99337.18;1691871;83;20131;-40
2021/03/23 01:32:58;;;;;;;;;;;;;;;0.79;77.02;99334.60;1675918;83;20308;-35
2021/03/23 01:35:27;;;;;;;;;;;;;;;0.80;76.57;99334.19;1687395;83;20617;-40
2021/03/23 01:37:55;;;;;;;;;;;;;;;0.79;76.26;99333.31;1709996;84;20172;-35
2021/03/23 01:40:24;;;;;;;;;;;;;;;0.78;76.08;99336.73;1705304;83;20191;-39
2021/03/23 01:42:58;;;;;;;;;;;;;;;0.79;75.79;99338.88;1698687;83;20124;-40
2021/03/23 01:45:32;;;;;;;;;;;;;;;0.79;75.45;99338.88;1706766;82;20193;-35
2021/03/23 01:48:01;;;;;;;;;;;;;;;0.79;75.21;99341.04;1673683;86;20209;-34
2021/03/23 01:50:29;;;;;;;;;;;;;;;0.79;74.93;99334.60;1693596;83;20483;-39
2021/03/23 01:53:09;;;;;;;;;;;;;;;0.79;74.70;99344.91;1714246;83;20199;-34
2021/03/23 01:55:36;;;;;;;;;;;;;;;0.79;74.36;99341.04;1714334;84;20168;-34
2021/03/23 01:58:05;;;;;;;;;;;;;;;0.78;74.03;99347.45;1714202;83;20472;-35
2021/03/23 02:00:33;;;;;;;;;;;;;;;0.78;73.89;99356.46;1699318;83;20161;-39
2021/03/23 02:03:02;;;;;;;;;;;;;;;0.77;73.84;99351.73;1691763;83;20273;-34
2021/03/23 02:05:32;;;;;;;;;;;;;;;0.76;73.16;99352.98;1680646;84;20154;-34
2021/03/23 02:08:00;;;;;;;;;;;;;;;0.75;73.45;99352.52;1696306;83;20282;-34
2021/03/23 02:10:28;;;;;;;;;;;;;;;0.74;73.26;99356.80;1695685;84;20520;-39
2021/03/23 02:12:55;;;;;;;;;;;;;;;0.74;73.05;99364.52;1712348;83;20208;-34
2021/03/23 02:15:24;;;;;;;;;;;;;;;0.72;72.81;99354.61;1710405;83;20455;-35
2021/03/23 02:18:10;;;;;;;;;;;;;;;0.71;72.31;99356.73;1707320;83;20223;-34
2021/03/23 02:21:05;;;;;;;;;;;;;;;0.70;72.29;99361.44;1710951;83;20148;-39
2021/03/23 02:23:36;;;;;;;;;;;;;;;0.67;72.24;99361.34;1728996;82;20559;-40
2021/03/23 02:26:04;;;;;;;;;;;;;;;0.64;72.47;99362.96;1674745;83;20462;-38
2021/03/23 02:31:35;;;;;;;;;;;;;;;0.63;72.33;99357.36;1794567;79;20428;-34
2021/03/23 02:34:05;;;;;;;;;;;;;;;0.59;72.29;99360.72;1804752;79;20137;-39
2021/03/23 02:36:33;;;;;;;;;;;;;;;0.56;72.31;99364.07;1772982;79;20184;-36
2021/03/23 02:39:00;;;;;;;;;;;;;;;0.56;72.18;99367.06;1822966;79;20454;-35
2021/03/23 02:41:28;;;;;;;;;;;;;;;0.53;71.66;99363.59;1790803;79;20197;-35
2021/03/23 02:43:57;;;;;;;;;;;;;;;0.53;71.43;99365.30;1790230;80;20221;-40
2021/03/23 02:46:25;;;;;;;;;;;;;;;0.51;71.14;99370.38;1782165;79;20175;-35
2021/03/23 02:48:52;;;;;;;;;;;;;;;0.48;70.85;99366.46;1779225;79;20498;-40
2021/03/23 02:51:20;;;;;;;;;;;;;;;0.47;70.54;99363.44;1764882;79;20213;-39
2021/03/23 02:53:49;;;;;;;;;;;;;;;0.45;69.97;99371.52;1779071;79;20195;-35
2021/03/23 02:56:16;;;;;;;;;;;;;;;0.43;70.11;99365.47;1764958;80;20432;-35
2021/03/23 02:58:45;;;;;;;;;;;;;;;0.41;69.45;99371.42;1818969;79;20590;-34
2021/03/23 03:01:14;;;;;;;;;;;;;;;0.39;69.39;99364.05;1778372;79;20188;-39
2021/03/23 03:03:42;;;;;;;;;;;;;;;0.35;69.12;99374.70;1774165;79;20190;-39
2021/03/23 03:06:10;;;;;;;;;;;;;;;0.33;68.72;99370.33;1779398;79;20458;-39
2021/03/23 03:08:39;;;;;;;;;;;;;;;0.31;68.28;99369.02;1811236;79;20165;-35
2021/03/23 03:11:06;;;;;;;;;;;;;;;0.30;68.35;99366.41;1766159;80;20137;-40
2021/03/23 03:13:34;;;;;;;;;;;;;;;0.27;68.05;99364.61;1760734;79;20185;-35
2021/03/23 03:16:02;;;;;;;;;;;;;;;0.26;68.02;99375.32;1782444;79;20212;-40
2021/03/23 03:18:31;;;;;;;;;;;;;;;0.24;67.75;99367.12;1777557;79;20251;-40
2021/03/23 03:20:59;;;;;;;;;;;;;;;0.22;67.99;99359.34;1767489;80;20191;-35
2021/03/23 03:23:28;;;;;;;;;;;;;;;0.19;67.68;99358.41;1759290;82;20432;-36
2021/03/23 03:25:59;;;;;;;;;;;;;;;0.16;67.63;99357.02;1772580;79;20156;-40
2021/03/23 03:28:27;;;;;;;;;;;;;;;0.12;67.36;99368.95;1780145;81;20235;-35
2021/03/23 03:30:54;;;;;;;;;;;;;;;0.09;67.46;99376.98;1781078;79;20166;-39
2021/03/23 03:33:22;;;;;;;;;;;;;;;0.06;67.22;99377.79;1794739;79;20468;-36
2021/03/23 03:35:50;;;;;;;;;;;;;;;0.03;66.69;99383.25;1763077;79;20180;-35
2021/03/23 03:38:20;;;;;;;;;;;;;;;-0.01;66.26;99374.16;1765950;79;20193;-34
2021/03/23 03:40:50;;;;;;;;;;;;;;;-0.04;66.51;99385.66;1761610;80;20174;-35
2021/03/23 03:43:18;;;;;;;;;;;;;;;-0.07;66.57;99385.55;1764452;79;20195;-36
2021/03/23 03:45:45;;;;;;;;;;;;;;;-0.10;66.56;99382.91;1760087;80;20141;-35
2021/03/23 03:48:13;;;;;;;;;;;;;;;-0.13;66.75;99393.52;1766406;79;20152;-35
2021/03/23 03:50:42;;;;;;;;;;;;;;;-0.15;66.87;99397.76;1761622;80;20173;-35
2021/03/23 03:53:11;;;;;;;;;;;;;;;-0.18;66.97;99398.94;1767288;79;20124;-35
2021/03/23 03:55:40;;;;;;;;;;;;;;;-0.19;67.24;99389.07;1783503;79;20464;-35
2021/03/23 03:58:07;;;;;;;;;;;;;;;-0.20;67.54;99387.75;1814403;79;20165;-39
2021/03/23 04:00:35;;;;;;;;;;;;;;;-0.22;68.01;99393.27;1794485;79;20474;-39
2021/03/23 04:03:12;;;;;;;;;;;;;;;-0.25;68.38;99399.19;1772772;79;20154;-39
2021/03/23 04:05:40;;;;;;;;;;;;;;;-0.26;68.79;99406.44;1777046;79;20145;-39
2021/03/23 04:08:09;;;;;;;;;;;;;;;-0.27;69.19;99406.86;1773176;79;20467;-39
2021/03/23 04:10:36;;;;;;;;;;;;;;;-0.25;69.65;99407.31;1787064;79;20185;-35
2021/03/23 04:13:04;;;;;;;;;;;;;;;-0.25;69.92;99408.59;1759351;79;20199;-39
2021/03/23 04:15:34;;;;;;;;;;;;;;;-0.24;70.18;99409.05;1789217;79;20161;-39
2021/03/23 04:18:01;;;;;;;;;;;;;;;-0.22;70.54;99403.56;1810355;79;20158;-35
2021/03/23 04:20:29;;;;;;;;;;;;;;;-0.22;70.77;99401.86;1773792;79;20160;-39
2021/03/23 04:22:57;;;;;;;;;;;;;;;-0.19;70.64;99402.34;1754666;79;20218;-38
2021/03/23 04:25:27;;;;;;;;;;;;;;;-0.19;70.81;99412.63;1753729;80;20216;-39
2021/03/23 04:27:54;;;;;;;;;;;;;;;-0.19;71.13;99417.36;1742842;80;20182;-33
2021/03/23 04:30:23;;;;;;;;;;;;;;;-0.20;70.76;99413.46;1773889;80;20188;-39
2021/03/23 04:32:52;;;;;;;;;;;;;;;-0.19;71.16;99417.36;1766620;79;20140;-39
2021/03/23 04:35:43;;;;;;;;;;;;;;;-0.19;71.33;99415.20;1794054;79;20201;-39
2021/03/23 04:38:13;;;;;;;;;;;;;;;-0.18;71.19;99419.09;1769016;79;20554;-38
2021/03/23 04:40:40;;;;;;;;;;;;;;;-0.17;70.95;99417.00;1758275;79;20173;-34
2021/03/23 04:43:08;;;;;;;;;;;;;;;-0.16;71.23;99425.17;1755751;79;20183;-39
2021/03/23 04:45:35;;;;;;;;;;;;;;;-0.16;70.94;99419.16;1771371;79;20464;-37
2021/03/23 04:48:04;;;;;;;;;;;;;;;-0.16;70.65;99416.17;1814558;79;20405;-34
2021/03/23 04:50:32;;;;;;;;;;;;;;;-0.16;70.70;99421.73;1789127;79;20157;-34
2021/03/23 04:52:59;;;;;;;;;;;;;;;-0.15;70.48;99427.33;1767449;79;20180;-34
2021/03/23 04:55:27;;;;;;;;;;;;;;;-0.15;70.24;99429.48;1767137;79;20470;-34
2021/03/23 04:57:56;;;;;;;;;;;;;;;-0.14;69.80;99429.06;1769307;80;20141;-34
2021/03/23 05:00:24;;;;;;;;;;;;;;;-0.15;70.07;99429.48;1763818;80;20134;-38
2021/03/23 05:02:52;;;;;;;;;;;;;;;-0.14;69.73;99438.93;1801887;79;20587;-33
2021/03/23 05:05:20;;;;;;;;;;;;;;;-0.14;69.80;99436.78;1782499;79;20173;-38
2021/03/23 05:07:48;;;;;;;;;;;;;;;-0.14;69.81;99442.79;1766462;79;20310;-39
2021/03/23 05:10:16;;;;;;;;;;;;;;;-0.12;69.89;99447.55;1768105;79;20169;-39
2021/03/23 05:12:43;;;;;;;;;;;;;;;-0.07;69.91;99447.69;1769110;80;20214;-39
2021/03/23 05:15:11;;;;;;;;;;;;;;;-0.03;69.46;99446.55;1771043;79;20134;-39
2021/03/23 05:17:39;;;;;;;;;;;;;;;0.05;69.57;99441.61;1772054;80;20183;-39
2021/03/23 05:20:07;;;;;;;;;;;;;;;0.18;68.79;99441.14;1793922;79;20149;-39
2021/03/23 05:22:35;;;;;;;;;;;;;;;0.30;68.97;99443.19;1767866;79;20145;-39
2021/03/23 05:25:03;;;;;;;;;;;;;;;0.43;68.41;99450.40;1793393;79;20460;-35
2021/03/23 05:27:31;;;;;;;;;;;;;;;0.53;65.55;99460.12;1762342;80;20145;-37
2021/03/23 05:29:58;;;;;;;;;;;;;;;0.58;65.13;99447.77;1769922;79;20830;-40
2021/03/23 05:32:27;;;;;;;;;;;;;;;0.57;65.47;99448.59;1769364;79;20241;-39
2021/03/23 05:34:55;;;;;;;;;;;;;;;0.52;65.32;99441.65;1763546;79;20547;-35
2021/03/23 05:37:24;;;;;;;;;;;;;;;0.47;64.50;99456.09;1766734;79;20354;-40
2021/03/23 05:39:52;;;;;;;;;;;;;;;0.41;64.33;99471.38;1761963;79;20176;-35
2021/03/23 05:42:26;;;;;;;;;;;;;;;0.37;64.58;99463.52;1766299;79;20206;-35
2021/03/23 05:44:59;;;;;;;;;;;;;;;0.37;65.25;99463.52;1767758;79;20206;-35
2021/03/23 05:47:35;;;;;;;;;;;;;;;0.43;65.51;99463.27;1764984;80;20552;-40
2021/03/23 05:50:12;;;;;;;;;;;;;;;0.51;64.21;99463.46;1763479;79;20204;-40
2021/03/23 05:52:59;;;;;;;;;;;;;;;0.60;63.82;99468.00;1761648;79;20202;-35
2021/03/23 05:55:42;;;;;;;;;;;;;;;0.64;62.49;99458.22;1762351;79;20283;-40
2021/03/23 05:58:19;;;;;;;;;;;;;;;0.67;62.06;99458.31;1763522;79;20174;-35
2021/03/23 06:00:57;;;;;;;;;;;;;;;0.71;61.61;99464.88;1767656;80;20552;-35
2021/03/23 06:03:29;;;;;;;;;;;;;;;0.77;62.34;99470.60;1765350;79;20532;-35
2021/03/23 06:06:24;;;;;;;;;;;;;;;0.87;61.98;99474.27;1760819;79;20258;-35
2021/03/23 06:08:52;;;;;;;;;;;;;;;0.95;61.19;99474.94;1761348;79;20188;-35
2021/03/23 06:11:32;;;;;;;;;;;;;;;1.01;61.10;99474.22;1757846;79;20217;-35
2021/03/23 06:14:33;;;;;;;;;;;;;;;0.99;61.60;99481.91;1753183;79;20197;-39
2021/03/23 06:17:19;;;;;;;;;;;;;;;0.96;62.76;99477.09;1764765;79;20201;-34
2021/03/23 06:19:55;;;;;;;;;;;;;;;0.86;61.64;99478.97;1736608;79;20206;-34
2021/03/23 06:22:29;;;;;;;;;;;;;;;0.76;60.78;99480.03;1761263;79;20173;-38
2021/03/23 06:25:37;;;;;;;;;;;;;;;0.69;60.27;99480.68;1758199;79;20783;-40
2021/03/23 06:28:38;;;;;;;;;;;;;;;0.70;60.55;99479.01;1760466;79;20442;-40
2021/03/23 06:32:15;;;;;;;;;;;;;;;0.74;60.61;99488.53;1716135;81;20184;-39
2021/03/23 06:39:48;;;;;;;;;;;;;;;0.65;59.06;99495.61;1649146;85;20669;-35
2021/03/23 06:43:34;;;;;;;;;;;;;;;0.66;57.43;99496.48;1648819;85;20558;-34
2021/03/23 06:46:45;;;;;;;;;;;;;;;0.68;57.41;99496.97;1629931;86;20181;-34
2021/03/23 06:49:18;;;;;;;;;;;;;;;0.77;58.26;99497.22;1644722;86;20165;-34
2021/03/23 06:51:57;;;;;;;;;;;;;;;0.89;57.98;99491.94;1641691;85;20235;-34
2021/03/23 06:54:36;;;;;;;;;;;;;;;0.99;56.87;99492.22;1642941;86;20489;-34
2021/03/23 06:57:07;;;;;;;;;;;;;;;1.03;56.41;99490.57;1645060;86;20332;-34
2021/03/23 06:59:47;;;;;;;;;;;;;;;1.09;55.48;99498.45;1643553;86;20629;-35
2021/03/23 07:02:41;;;;;;;;;;;;;;;1.15;56.14;99485.72;1645466;85;20264;-39
2021/03/23 07:05:35;;;;;;;;;;;;;;;1.21;56.68;99475.98;1630372;86;20633;-39
2021/03/23 07:08:12;;;;;;;;;;;;;;;1.36;57.37;99475.49;1649446;84;20196;-40
2021/03/23 07:10:55;;;;;;;;;;;;;;;1.51;56.02;99476.73;1670729;84;20198;-35
2021/03/23 07:13:30;;;;;;;;;;;;;;;1.67;57.23;99476.64;1670265;84;20213;-36
2021/03/23 07:16:15;;;;;;;;;;;;;;;1.84;53.67;99476.59;1674254;83;20284;-35
2021/03/23 07:18:46;;;;;;;;;;;;;;;2.02;54.36;99478.70;1673434;83;20216;-35
2021/03/23 07:21:29;;;;;;;;;;;;;;;2.19;52.46;99472.59;1673422;83;20196;-35
2021/03/23 07:24:11;;;;;;;;;;;;;;;2.33;51.01;99475.06;1674728;84;20604;-35
2021/03/23 07:26:40;;;;;;;;;;;;;;;2.44;47.92;99475.70;1681842;83;20584;-40
2021/03/23 07:29:30;;;;;;;;;;;;;;;2.47;47.61;99466.70;1678472;83;20198;-40
2021/03/23 07:36:32;;;;;;;;;;;;;;;2.51;47.74;99473.25;1594938;88;20198;-37
2021/03/23 07:39:45;;;;;;;;;;;;;;;2.72;45.43;99469.31;1889650;74;20320;-34
2021/03/23 07:42:28;;;;;;;;;;;;;;;2.78;45.06;99472.88;1795159;78;20600;-34
2021/03/23 07:45:19;;;;;;;;;;;;;;;2.87;43.23;99477.35;1764420;78;20162;-36
2021/03/23 07:48:09;;;;;;;;;;;;;;;2.91;42.49;99472.70;1786145;78;20516;-39
2021/03/23 07:50:40;;;;;;;;;;;;;;;2.91;42.32;99474.86;1778199;78;20162;-35
2021/03/23 07:53:33;;;;;;;;;;;;;;;2.88;40.79;99475.21;1782421;78;20174;-35
2021/03/23 07:56:08;;;;;;;;;;;;;;;2.82;40.83;99472.52;1779751;79;20417;-40
2021/03/23 07:58:52;;;;;;;;;;;;;;;2.80;42.85;99472.92;1768198;79;20193;-40
2021/03/23 08:01:40;;;;;;;;;;;;;;;2.91;42.00;99473.98;1779974;78;20438;-40
2021/03/23 08:04:10;;;;;;;;;;;;;;;3.01;41.65;99471.12;1779670;79;20291;-40
2021/03/23 08:06:45;;;;;;;;;;;;;;;3.12;41.25;99461.84;1774615;79;20173;-35
2021/03/23 08:09:24;;;;;;;;;;;;;;;3.23;41.53;99466.77;1780099;78;20461;-43
2021/03/23 08:12:07;;;;;;;;;;;;;;;3.43;43.30;99454.16;1777169;78;20501;-35
2021/03/23 08:14:58;;;;;;;;;;;;;;;3.52;40.06;99454.28;1773110;79;20183;-35
2021/03/23 08:17:44;;;;;;;;;;;;;;;3.40;40.06;99463.16;1772823;79;20503;-39
2021/03/23 08:20:44;;;;;;;;;;;;;;;3.27;41.59;99460.80;1778026;78;20460;-35
2021/03/23 08:23:52;;;;;;;;;;;;;;;3.23;41.89;99464.17;1668111;84;20342;-35
2021/03/23 08:30:17;;;;;;;;;;;;;;;2.98;42.29;99465.49;1689297;83;20206;-39
2021/03/23 08:33:31;;;;;;;;;;;;;;;3.11;41.88;99464.84;1863502;74;20590;-40
2021/03/23 08:40:36;;;;;;;;;;;;;;;2.98;41.42;99470.66;1826028;76;20170;-36
2021/03/23 08:43:31;;;;;;;;;;;;;;;2.85;43.46;99471.30;1826558;77;20782;-40
2021/03/23 08:46:20;;;;;;;;;;;;;;;2.76;41.43;99464.66;1824002;76;21130;-35
2021/03/23 08:48:51;;;;;;;;;;;;;;;2.75;44.68;99458.63;1824449;77;20150;-36
2021/03/23 08:51:21;;;;;;;;;;;;;;;2.86;49.19;99467.87;1835149;77;20439;-39
2021/03/23 08:53:54;;;;;;;;;;;;;;;3.03;47.85;99478.08;1815227;77;20217;-39
2021/03/23 08:56:48;;;;;;;;;;;;;;;3.12;45.53;99472.17;1826152;76;20263;-35
2021/03/23 08:59:34;;;;;;;;;;;;;;;3.05;47.20;99464.75;1764295;79;20782;-36
2021/03/23 09:02:12;;;;;;;;;;;;;;;2.93;47.13;99475.74;1778400;79;20198;-34
2021/03/23 09:04:41;;;;;;;;;;;;;;;2.79;47.47;99459.56;1777158;79;20541;-39
2021/03/23 09:07:16;;;;;;;;;;;;;;;2.77;46.77;99457.36;1776332;78;20553;-34
2021/03/23 09:09:47;;;;;;;;;;;;;;;2.91;44.24;99455.90;1769368;79;20174;-35
2021/03/23 09:12:35;;;;;;;;;;;;;;;3.02;41.72;99454.38;1772181;79;20171;-34
2021/03/23 09:15:22;;;;;;;;;;;;;;;3.02;42.13;99454.38;1769766;79;20526;-40
2021/03/23 09:18:06;;;;;;;;;;;;;;;2.99;42.49;99450.43;1775094;79;20715;-35
2021/03/23 09:20:41;;;;;;;;;;;;;;;2.99;41.74;99447.84;1762396;79;20713;-39
2021/03/23 09:23:27;;;;;;;;;;;;;;;2.96;43.63;99457.25;1773450;79;20166;-39
2021/03/23 09:26:00;;;;;;;;;;;;;;;2.86;43.44;99455.81;1767956;79;20477;-36
2021/03/23 09:28:40;;;;;;;;;;;;;;;2.70;44.55;99461.97;1770232;79;20160;-35
2021/03/23 09:31:30;;;;;;;;;;;;;;;2.59;44.50;99453.59;1783212;79;20152;-38
2021/03/23 09:34:00;;;;;;;;;;;;;;;2.55;46.09;99453.11;1789840;78;20180;-40
2021/03/23 09:36:33;;;;;;;;;;;;;;;2.58;44.85;99445.41;1785454;78;20157;-40
2021/03/23 09:39:19;;;;;;;;;;;;;;;2.82;45.35;99444.09;1775280;79;20548;-40
2021/03/23 09:41:49;;;;;;;;;;;;;;;3.14;45.74;99445.95;1799125;78;20175;-41
2021/03/23 09:44:29;;;;;;;;;;;;;;;3.31;44.09;99439.76;1756235;80;20206;-35
2021/03/23 09:46:58;;;;;;;;;;;;;;;3.29;41.63;99437.55;1799090;77;20175;-39
2021/03/23 09:49:46;;;;;;;;;;;;;;;3.14;44.48;99466.63;1789046;78;20171;-39
2021/03/23 09:52:19;;;;;;;;;;;;;;;2.91;47.23;99466.23;1798955;78;20206;-40
2021/03/23 09:54:57;;;;;;;;;;;;;;;2.60;45.88;99460.92;1795140;78;20471;-35
2021/03/23 09:57:26;;;;;;;;;;;;;;;2.46;46.74;99459.80;1800257;78;20176;-35
2021/03/23 09:59:58;;;;;;;;;;;;;;;2.45;46.93;99454.20;1785288;78;20204;-35
2021/03/23 10:02:32;;;;;;;;;;;;;;;2.55;46.73;99449.63;1764210;79;20466;-34
2021/03/23 10:05:17;;;;;;;;;;;;;;;2.66;47.20;99448.11;1752883;80;20182;-35
2021/03/23 10:07:50;;;;;;;;;;;;;;;2.87;46.33;99451.52;1768164;79;20726;-35
2021/03/23 10:10:32;;;;;;;;;;;;;;;3.15;45.84;99445.97;1762655;80;20228;-40
2021/03/23 10:13:02;;;;;;;;;;;;;;;3.36;44.57;99445.84;1761440;79;20341;-37
2021/03/23 10:15:34;;;;;;;;;;;;;;;3.38;43.94;99441.58;1708660;81;20299;-36
2021/03/23 10:18:10;;;;;;;;;;;;;;;3.12;47.92;99454.95;1721680;81;20631;-36
2021/03/23 10:25:20;;;;;;;;;;;;;;;2.13;55.24;99454.41;1712226;81;20429;-36
2021/03/23 10:29:01;;;;;;;;;;;;;;;1.73;57.43;99468.17;1717337;81;20185;-36
2021/03/23 10:36:23;;;;;;;;;;;;;;;1.91;57.38;99447.93;1697595;82;20799;-34
2021/03/23 10:39:27;;;;;;;;;;;;;;;2.73;54.27;99443.53;1693602;82;20248;-39
2021/03/23 10:42:16;;;;;;;;;;;;;;;3.72;48.18;99426.13;1797010;78;20254;-34
2021/03/23 10:45:51;;;;;;;;;;;;;;;4.38;44.84;99410.97;1770290;79;20188;-40
2021/03/23 10:48:48;;;;;;;;;;;;;;;5.21;40.53;99416.91;1769609;79;20209;-39
2021/03/23 10:51:20;;;;;;;;;;;;;;;5.26;40.59;99416.52;1775441;79;20253;-34
2021/03/23 10:53:58;;;;;;;;;;;;;;;5.05;41.83;99418.53;1771978;79;20617;-34
2021/03/23 10:56:30;;;;;;;;;;;;;;;4.58;45.00;99412.88;1776659;79;20169;-35
2021/03/23 10:59:13;;;;;;;;;;;;;;;4.00;49.71;99414.00;1777245;79;20179;-39
2021/03/23 11:01:58;;;;;;;;;;;;;;;3.58;50.57;99410.83;1774696;79;20516;-34
2021/03/23 11:12:41;;;;;;;;;;;;;;;2.87;49.70;99423.96;1742589;79;20754;-40
2021/03/23 11:19:59;;;;;;;;;;;;;;;3.26;47.17;99420.29;1768192;79;20488;-35
2021/03/23 11:23:20;;;;;;;;;;;;;;;3.93;44.93;99413.45;1773669;79;20316;-40
2021/03/23 11:26:50;;;;;;;;;;;;;;;4.61;43.71;99404.73;1775020;79;20462;-39
2021/03/23 11:29:49;;;;;;;;;;;;;;;5.20;41.45;99405.66;1719989;82;20207;-40
2021/03/23 11:32:57;;;;;;;;;;;;;;;5.29;37.56;99407.04;1695791;83;20313;-35
2021/03/23 11:36:09;;;;;;;;;;;;;;;5.12;38.12;99398.27;1722190;81;20207;-39
2021/03/23 11:38:54;;;;;;;;;;;;;;;5.01;38.17;99407.69;1720889;82;20171;-34
2021/03/23 11:41:28;;;;;;;;;;;;;;;5.08;37.90;99392.17;1700577;83;20184;-39
2021/03/23 11:44:00;;;;;;;;;;;;;;;4.94;37.85;99385.16;1688501;84;20652;-34
2021/03/23 11:46:44;;;;;;;;;;;;;;;4.85;37.94;99391.55;1688492;84;20167;-39
2021/03/23 11:49:16;;;;;;;;;;;;;;;4.75;39.13;99386.31;1689563;84;20231;-39
2021/03/23 11:51:47;;;;;;;;;;;;;;;4.43;40.05;99383.83;1689452;84;20219;-34
2021/03/23 11:54:15;;;;;;;;;;;;;;;4.07;40.39;99394.23;1692166;84;20368;-39
2021/03/23 11:56:44;;;;;;;;;;;;;;;3.85;39.78;99387.91;1692098;84;20223;-40
2021/03/23 11:59:12;;;;;;;;;;;;;;;3.64;40.20;99385.91;1692651;82;20178;-35
2021/03/23 12:01:40;;;;;;;;;;;;;;;3.46;39.46;99385.23;1687727;83;20353;-35
2021/03/23 12:04:09;;;;;;;;;;;;;;;3.32;38.41;99386.77;1687134;83;20562;-38
2021/03/23 12:06:58;;;;;;;;;;;;;;;3.25;39.20;99382.75;1711303;83;20496;-39
2021/03/23 12:09:28;;;;;;;;;;;;;;;3.20;38.18;99384.88;1706017;83;20184;-39
2021/03/23 12:12:00;;;;;;;;;;;;;;;3.15;39.29;99390.81;1706983;83;20164;-39
2021/03/23 12:15:01;;;;;;;;;;;;;;;3.19;38.85;99391.32;1678875;83;20188;-39
2021/03/23 12:17:28;;;;;;;;;;;;;;;3.37;40.02;99386.84;1689492;84;20404;-39
2021/03/23 12:20:04;;;;;;;;;;;;;;;3.72;40.11;99378.27;1674367;83;20336;-35
2021/03/23 12:22:29;;;;;;;;;;;;;;;4.09;38.69;99378.28;1686846;83;20216;-36
2021/03/23 12:24:59;;;;;;;;;;;;;;;4.40;38.11;99381.19;1704419;83;20560;-42
2021/03/23 12:27:28;;;;;;;;;;;;;;;4.57;37.47;99375.75;1701106;83;20409;-35
2021/03/23 12:29:56;;;;;;;;;;;;;;;4.73;39.56;99382.81;1705031;82;20558;-38
2021/03/23 12:32:25;;;;;;;;;;;;;;;4.88;39.24;99378.20;1708845;83;20182;-39
2021/03/23 12:34:53;;;;;;;;;;;;;;;4.95;38.60;99381.28;1708675;83;20191;-40
2021/03/23 12:37:20;;;;;;;;;;;;;;;4.92;37.55;99373.46;1686384;83;20448;-39
2021/03/23 12:39:54;;;;;;;;;;;;;;;4.73;39.45;99380.66;1687660;83;20425;-39
2021/03/23 12:42:24;;;;;;;;;;;;;;;4.48;41.01;99380.43;1685004;83;20206;-35
2021/03/23 12:44:52;;;;;;;;;;;;;;;4.03;41.53;99373.03;1705799;83;20471;-34
2021/03/23 12:47:19;;;;;;;;;;;;;;;3.64;42.72;99378.15;1706630;83;20285;-33
2021/03/23 12:49:47;;;;;;;;;;;;;;;3.38;42.69;99379.53;1701624;83;20436;-33
2021/03/23 12:52:16;;;;;;;;;;;;;;;3.24;43.46;99384.90;1699130;83;20194;-34
2021/03/23 12:54:47;;;;;;;;;;;;;;;3.12;42.77;99376.11;1703527;83;20162;-33
2021/03/23 12:57:19;;;;;;;;;;;;;;;3.09;42.89;99370.91;1703688;83;20532;-35
2021/03/23 12:59:47;;;;;;;;;;;;;;;3.13;43.03;99377.88;1708863;83;20168;-39
2021/03/23 13:02:17;;;;;;;;;;;;;;;3.16;43.38;99377.91;1702870;83;20214;-39
2021/03/23 13:04:46;;;;;;;;;;;;;;;3.19;41.83;99371.51;1707183;83;20617;-39
2021/03/23 13:07:18;;;;;;;;;;;;;;;3.22;40.40;99373.25;1701659;83;20180;-36
2021/03/23 13:09:47;;;;;;;;;;;;;;;3.23;38.81;99373.70;1707300;83;20156;-35
2021/03/23 13:12:15;;;;;;;;;;;;;;;3.23;38.86;99376.28;1693912;83;20550;-36
2021/03/23 13:14:44;;;;;;;;;;;;;;;3.30;38.99;99371.64;1705210;83;20184;-40
2021/03/23 13:17:13;;;;;;;;;;;;;;;3.64;38.85;99369.52;1709904;83;20174;-40
2021/03/23 13:19:41;;;;;;;;;;;;;;;4.11;38.80;99362.33;1699471;83;20197;-35
2021/03/23 13:22:15;;;;;;;;;;;;;;;4.39;38.17;99364.78;1703682;83;20744;-35
2021/03/23 13:24:45;;;;;;;;;;;;;;;4.45;38.13;99366.14;1699882;83;20184;-35
2021/03/23 13:27:27;;;;;;;;;;;;;;;4.41;38.13;99367.41;1696964;83;20431;-35
2021/03/23 13:29:57;;;;;;;;;;;;;;;4.27;38.60;99377.18;1708680;83;20757;-35
2021/03/23 13:32:25;;;;;;;;;;;;;;;4.10;38.81;99376.13;1709660;83;20481;-35
2021/03/23 13:34:53;;;;;;;;;;;;;;;3.88;39.42;99381.47;1707515;83;20185;-35
2021/03/23 13:37:27;;;;;;;;;;;;;;;3.58;38.38;99387.12;1702099;83;20151;-33
2021/03/23 13:40:00;;;;;;;;;;;;;;;3.31;39.31;99391.50;1707020;83;20167;-33
2021/03/23 13:42:30;;;;;;;;;;;;;;;3.15;40.15;99388.23;1709409;83;20154;-34
2021/03/23 13:45:07;;;;;;;;;;;;;;;3.29;40.58;99386.71;1707279;83;20164;-34
2021/03/23 13:47:36;;;;;;;;;;;;;;;3.72;40.36;99375.69;1721713;83;20163;-35
2021/03/23 13:50:06;;;;;;;;;;;;;;;4.12;39.30;99380.05;1721868;83;20206;-34
2021/03/23 13:52:36;;;;;;;;;;;;;;;4.36;38.88;99385.48;1712132;83;20481;-33
2021/03/23 13:55:24;;;;;;;;;;;;;;;4.75;38.66;99383.72;1717784;83;20191;-34
2021/03/23 13:57:51;;;;;;;;;;;;;;;5.20;36.90;99381.45;1722611;83;20164;-35
2021/03/23 14:00:21;;;;;;;;;;;;;;;5.47;33.17;99376.89;1718625;83;20199;-34
2021/03/23 14:02:49;;;;;;;;;;;;;;;5.43;33.31;99381.18;1708362;83;20190;-34
2021/03/23 14:05:16;;;;;;;;;;;;;;;5.43;33.20;99380.31;1707436;83;20256;-35
2021/03/23 14:07:46;;;;;;;;;;;;;;;5.71;32.85;99385.23;1720709;83;20512;-35
2021/03/23 14:10:20;;;;;;;;;;;;;;;5.83;37.00;99386.16;1693351;83;20190;-35
2021/03/23 14:12:49;;;;;;;;;;;;;;;6.12;39.33;99383.71;1720121;83;20420;-35
2021/03/23 14:15:22;;;;;;;;;;;;;;;6.55;39.81;99381.24;1700109;83;20166;-33
2021/03/23 14:17:50;;;;;;;;;;;;;;;6.78;40.49;99388.17;1713348;83;20463;-35
2021/03/23 14:20:19;;;;;;;;;;;;;;;7.08;38.96;99388.20;1710630;83;20176;-34